createdAt,value
2023-04-18T00:01:15.052Z,25.40
2023-04-18T00:03:46.011Z,24.60
2023-04-18T00:06:14.224Z,27.50
2023-04-18T00:08:42.154Z,27.60
2023-04-18T00:11:10.006Z,25.90
2023-04-18T00:13:39.457Z,27.00
2023-04-18T00:16:13.308Z,24.90
2023-04-18T00:18:41.219Z,27.80
2023-04-18T00:21:11.649Z,28.50
2023-04-18T00:23:39.857Z,28.30
2023-04-18T00:26:07.730Z,25.80
2023-04-18T00:28:35.544Z,26.30
2023-04-18T00:31:03.851Z,26.70
2023-04-18T00:33:34.681Z,29.10
2023-04-18T00:36:02.565Z,27.30
2023-04-18T00:38:30.446Z,27.90
2023-04-18T00:40:58.286Z,30.90
2023-04-18T00:43:26.908Z,26.90
2023-04-18T00:45:57.019Z,28.30
2023-04-18T00:48:25.086Z,30.20
2023-04-18T00:50:55.854Z,30.10
2023-04-18T00:53:24.220Z,28.30
2023-04-18T00:55:53.097Z,33.00
2023-04-18T00:58:21.233Z,33.30
2023-04-18T01:00:49.055Z,31.40
2023-04-18T01:03:18.324Z,32.60
2023-04-18T01:05:47.317Z,31.30
2023-04-18T01:08:16.252Z,31.30
2023-04-18T01:10:45.092Z,31.60
2023-04-18T01:13:20.641Z,32.60
2023-04-18T01:15:50.884Z,34.90
2023-04-18T01:18:19.063Z,32.40
2023-04-18T01:20:53.208Z,29.80
2023-04-18T01:23:21.486Z,29.50
2023-04-18T01:25:49.546Z,32.00
2023-04-18T01:28:23.866Z,31.00
2023-04-18T01:30:52.075Z,33.20
2023-04-18T01:33:20.009Z,28.50
2023-04-18T01:35:48.231Z,33.20
2023-04-18T01:38:15.986Z,28.00
2023-04-18T01:40:44.098Z,31.90
2023-04-18T01:43:12.118Z,29.60
2023-04-18T01:45:40.055Z,31.40
2023-04-18T01:48:09.876Z,28.90
2023-04-18T01:50:37.800Z,31.20
2023-04-18T01:53:05.695Z,32.90
2023-04-18T01:55:33.487Z,32.30
2023-04-18T01:58:01.286Z,32.30
2023-04-18T02:00:29.139Z,32.00
2023-04-18T02:02:59.666Z,31.80
2023-04-18T02:05:27.760Z,33.70
2023-04-18T02:07:55.977Z,31.10
2023-04-18T02:10:24.504Z,33.20
2023-04-18T02:12:52.396Z,33.40
2023-04-18T02:15:20.987Z,33.20
2023-04-18T02:17:49.099Z,35.60
2023-04-18T02:20:16.976Z,33.10
2023-04-18T02:22:44.756Z,30.80
2023-04-18T02:25:12.604Z,33.90
2023-04-18T02:27:40.409Z,32.20
2023-04-18T02:30:09.023Z,28.70
2023-04-18T02:32:36.897Z,31.90
2023-04-18T02:35:05.245Z,29.50
2023-04-18T02:37:33.039Z,32.80
2023-04-18T02:40:00.789Z,34.70
2023-04-18T02:42:31.757Z,33.50
2023-04-18T02:45:00.712Z,33.40
2023-04-18T02:47:29.490Z,35.10
2023-04-18T02:49:58.769Z,31.10
2023-04-18T02:52:28.206Z,27.40
2023-04-18T02:54:56.001Z,34.80
2023-04-18T02:57:26.583Z,33.40
2023-04-18T03:00:02.413Z,37.40
2023-04-18T03:02:42.522Z,32.10
2023-04-18T03:05:22.311Z,31.90
2023-04-18T03:07:51.273Z,31.60
2023-04-18T03:10:19.698Z,29.80
2023-04-18T03:12:47.861Z,31.70
2023-04-18T03:15:16.974Z,33.00
2023-04-18T03:17:45.120Z,30.40
2023-04-18T03:20:13.774Z,33.90
2023-04-18T03:22:41.856Z,33.60
2023-04-18T03:25:10.489Z,35.70
2023-04-18T03:27:47.592Z,37.60
2023-04-18T03:30:18.091Z,37.90
2023-04-18T03:32:50.429Z,32.80
2023-04-18T03:35:18.602Z,35.60
2023-04-18T03:37:46.412Z,34.60
2023-04-18T03:40:19.953Z,32.00
2023-04-18T03:42:48.094Z,33.60
2023-04-18T03:45:16.710Z,34.10
2023-04-18T03:47:46.133Z,31.70
2023-04-18T03:50:14.135Z,31.80
2023-04-18T03:52:43.174Z,32.70
2023-04-18T03:55:11.492Z,30.90
2023-04-18T03:57:40.839Z,32.60
2023-04-18T04:00:12.427Z,36.80
2023-04-18T04:02:52.928Z,31.10
2023-04-18T04:05:21.595Z,36.30
2023-04-18T04:07:50.058Z,29.90
2023-04-18T04:10:18.905Z,35.10
2023-04-18T04:12:48.541Z,32.30
2023-04-18T04:15:17.203Z,34.10
2023-04-18T04:17:59.085Z,36.20
2023-04-18T04:20:27.210Z,33.50
2023-04-18T04:23:03.062Z,30.40
2023-04-18T04:25:33.890Z,33.00
2023-04-18T04:28:04.427Z,28.50
2023-04-18T04:30:34.355Z,33.90
2023-04-18T04:33:03.484Z,30.30
2023-04-18T04:35:32.234Z,31.10
2023-04-18T04:38:01.663Z,29.40
2023-04-18T04:40:34.685Z,29.50
2023-04-18T04:43:12.764Z,28.70
2023-04-18T04:45:43.584Z,30.10
2023-04-18T04:48:11.435Z,25.60
2023-04-18T04:50:41.789Z,27.30
2023-04-18T04:53:12.454Z,28.20
2023-04-18T04:55:40.622Z,27.70
2023-04-18T04:58:08.641Z,26.30
2023-04-18T05:00:44.239Z,30.50
2023-04-18T05:03:12.324Z,26.00
2023-04-18T05:05:40.483Z,26.20
2023-04-18T05:08:08.410Z,27.50
2023-04-18T05:10:37.302Z,27.30
2023-04-18T05:13:05.436Z,27.50
2023-04-18T05:15:33.223Z,25.80
2023-04-18T05:18:01.050Z,28.50
2023-04-18T05:20:29.126Z,30.00
2023-04-18T05:22:57.220Z,28.80
2023-04-18T05:25:25.304Z,28.50
2023-04-18T05:27:53.111Z,28.60
2023-04-18T05:30:21.222Z,30.20
2023-04-18T05:32:49.084Z,29.20
2023-04-18T05:35:16.993Z,28.50
2023-04-18T05:37:44.864Z,27.80
2023-04-18T05:40:13.726Z,28.80
2023-04-18T05:42:41.476Z,28.80
2023-04-18T05:45:09.764Z,30.20
2023-04-18T05:47:37.551Z,26.90
2023-04-18T05:50:06.875Z,30.80
2023-04-18T05:52:39.017Z,25.80
2023-04-18T05:55:07.403Z,28.10
2023-04-18T05:57:35.386Z,27.50
2023-04-18T06:00:06.841Z,32.50
2023-04-18T06:02:40.458Z,28.20
2023-04-18T06:05:09.363Z,29.40
2023-04-18T06:07:37.502Z,29.50
2023-04-18T06:10:09.275Z,30.40
2023-04-18T06:12:37.259Z,28.70
2023-04-18T06:15:05.955Z,30.50
2023-04-18T06:17:34.940Z,29.20
2023-04-18T06:20:05.612Z,34.30
2023-04-18T06:22:36.383Z,30.90
2023-04-18T06:25:05.666Z,28.50
2023-04-18T06:27:33.545Z,30.30
2023-04-18T06:30:01.572Z,31.80
2023-04-18T06:32:29.481Z,33.10
2023-04-18T06:34:57.313Z,28.00
2023-04-18T06:37:25.513Z,28.00
2023-04-18T06:39:53.471Z,29.80
2023-04-18T06:42:22.607Z,31.10
2023-04-18T06:44:50.906Z,30.50
2023-04-18T06:47:18.800Z,31.10
2023-04-18T06:49:46.823Z,28.90
2023-04-18T06:52:14.750Z,30.60
2023-04-18T06:54:42.565Z,29.70
2023-04-18T06:57:12.322Z,28.40
2023-04-18T06:59:41.465Z,31.30
2023-04-18T07:02:09.550Z,28.50
2023-04-18T07:04:37.686Z,29.00
2023-04-18T07:07:05.761Z,32.30
2023-04-18T07:09:33.640Z,29.30
2023-04-18T07:12:01.436Z,29.70
2023-04-18T07:14:29.958Z,31.10
2023-04-18T07:16:58.853Z,28.30
2023-04-18T07:19:26.694Z,28.80
2023-04-18T07:21:55.950Z,29.90
2023-04-18T07:24:23.987Z,27.00
2023-04-18T07:26:54.391Z,32.10
2023-04-18T07:29:23.044Z,29.40
2023-04-18T07:31:50.972Z,31.50
2023-04-18T07:34:18.808Z,27.00
2023-04-18T07:36:46.690Z,29.30
2023-04-18T07:39:14.589Z,32.00
2023-04-18T07:41:42.510Z,27.20
2023-04-18T07:44:10.762Z,29.60
2023-04-18T07:46:38.708Z,27.70
2023-04-18T07:49:06.751Z,28.60
2023-04-18T07:51:35.002Z,27.30
2023-04-18T07:54:03.035Z,25.50
2023-04-18T07:56:31.129Z,30.40
2023-04-18T07:58:58.940Z,25.90
2023-04-18T08:01:27.258Z,29.90
2023-04-18T08:03:57.840Z,29.20
2023-04-18T08:06:26.245Z,28.10
2023-04-18T08:08:54.222Z,28.70
2023-04-18T08:11:22.149Z,31.70
2023-04-18T08:13:50.278Z,28.70
2023-04-18T08:16:18.146Z,30.00
2023-04-18T08:18:45.944Z,27.40
2023-04-18T08:21:13.808Z,29.20
2023-04-18T08:23:41.880Z,30.30
2023-04-18T08:26:09.673Z,29.50
2023-04-18T08:28:37.480Z,27.20
2023-04-18T08:31:05.840Z,26.70
2023-04-18T08:33:33.696Z,26.60
2023-04-18T08:36:01.671Z,26.60
2023-04-18T08:38:29.494Z,23.90
2023-04-18T08:40:57.902Z,26.50
2023-04-18T08:43:25.804Z,23.20
2023-04-18T08:46:00.147Z,26.30
2023-04-18T08:48:28.373Z,24.30
2023-04-18T08:51:02.266Z,23.70
2023-04-18T08:53:32.445Z,24.40
2023-04-18T08:56:01.559Z,23.80
2023-04-18T08:58:32.318Z,23.20
2023-04-18T09:01:00.882Z,23.20
2023-04-18T09:03:39.817Z,23.80
2023-04-18T09:06:19.080Z,20.50
2023-04-18T09:08:59.119Z,21.20
2023-04-18T09:11:31.712Z,22.40
2023-04-18T09:13:59.671Z,23.40
2023-04-18T09:16:28.083Z,20.60
2023-04-18T09:19:15.064Z,20.70
2023-04-18T09:21:48.916Z,20.10
2023-04-18T09:24:27.225Z,19.60
2023-04-18T09:26:58.834Z,20.40
2023-04-18T09:29:49.513Z,18.60
2023-04-18T09:32:35.250Z,21.20
2023-04-18T09:35:05.469Z,22.30
2023-04-18T09:37:33.441Z,22.00
2023-04-18T09:40:15.845Z,19.70
2023-04-18T09:42:43.589Z,18.80
2023-04-18T09:45:13.150Z,16.60
2023-04-18T09:47:41.164Z,15.60
2023-04-18T09:50:11.009Z,19.30
2023-04-18T09:52:42.736Z,19.80
2023-04-18T09:55:17.624Z,19.20
2023-04-18T09:57:50.454Z,17.90
2023-04-18T10:00:24.882Z,18.60
2023-04-18T10:02:59.266Z,18.60
2023-04-18T10:05:32.140Z,19.30
2023-04-18T10:08:00.762Z,18.10
2023-04-18T10:10:29.033Z,15.20
2023-04-18T10:12:59.625Z,16.20
2023-04-18T10:15:32.313Z,19.60
2023-04-18T10:18:10.871Z,16.30
2023-04-18T10:20:41.571Z,16.00
2023-04-18T10:23:31.104Z,17.60
2023-04-18T10:25:59.597Z,16.10
2023-04-18T10:28:28.250Z,17.70
2023-04-18T10:31:05.486Z,14.40
2023-04-18T10:33:33.786Z,16.60
2023-04-18T10:36:12.420Z,15.10
2023-04-18T10:38:46.151Z,15.10
2023-04-18T10:41:19.999Z,18.80
2023-04-18T10:44:08.047Z,17.60
2023-04-18T10:46:38.877Z,16.70
2023-04-18T10:49:30.261Z,17.60
2023-04-18T10:52:02.906Z,14.00
2023-04-18T10:54:41.931Z,17.30
2023-04-18T10:57:11.236Z,15.50
2023-04-18T10:59:43.535Z,17.40
2023-04-18T11:02:26.391Z,14.40
2023-04-18T11:05:00.314Z,13.60
2023-04-18T11:07:37.976Z,15.00
2023-04-18T11:10:08.920Z,13.60
2023-04-18T11:12:41.486Z,13.60
2023-04-18T11:15:22.332Z,13.20
2023-04-18T11:18:00.498Z,14.00
2023-04-18T11:20:37.087Z,15.10
2023-04-18T11:23:16.033Z,12.90
2023-04-18T11:25:47.033Z,11.80
2023-04-18T11:28:21.442Z,15.00
2023-04-18T11:30:49.697Z,14.00
2023-04-18T11:33:17.703Z,16.00
2023-04-18T11:35:46.888Z,12.60
2023-04-18T11:38:16.311Z,10.60
2023-04-18T11:40:51.112Z,11.80
2023-04-18T11:43:25.094Z,13.10
2023-04-18T11:45:58.074Z,11.50
2023-04-18T11:48:41.416Z,9.80
2023-04-18T11:51:35.695Z,11.40
2023-04-18T11:54:04.089Z,12.30
2023-04-18T11:56:33.025Z,13.70
2023-04-18T11:59:09.460Z,10.10
2023-04-18T12:01:37.279Z,9.80
2023-04-18T12:04:08.027Z,11.60
2023-04-18T12:06:53.839Z,10.70
2023-04-18T12:09:27.533Z,12.20
2023-04-18T12:12:04.030Z,11.70
2023-04-18T12:14:31.818Z,14.30
2023-04-18T12:17:03.419Z,10.60
2023-04-18T12:19:32.682Z,12.50
2023-04-18T12:22:06.576Z,11.50
2023-04-18T12:24:34.558Z,10.00
2023-04-18T12:27:02.460Z,12.00
2023-04-18T12:29:30.279Z,10.80
2023-04-18T12:31:58.173Z,11.00
2023-04-18T12:34:26.176Z,10.10
2023-04-18T12:36:54.104Z,9.30
2023-04-18T12:39:21.965Z,12.30
2023-04-18T12:41:50.071Z,10.40
2023-04-18T12:44:18.228Z,10.60
2023-04-18T12:46:46.372Z,11.30
2023-04-18T12:49:14.819Z,11.70
2023-04-18T12:51:43.714Z,12.20
2023-04-18T12:54:11.636Z,12.90
2023-04-18T12:56:39.610Z,13.40
2023-04-18T12:59:07.425Z,12.60
2023-04-18T13:01:35.245Z,9.40
2023-04-18T13:04:11.800Z,12.60
2023-04-18T13:06:41.061Z,13.60
2023-04-18T13:09:09.380Z,9.20
2023-04-18T13:11:37.338Z,12.30
2023-04-18T13:14:05.354Z,9.40
2023-04-18T13:16:33.288Z,10.60
2023-04-18T13:19:01.223Z,10.70
2023-04-18T13:21:29.327Z,10.80
2023-04-18T13:23:57.444Z,10.50
2023-04-18T13:26:25.682Z,9.90
2023-04-18T13:28:53.585Z,8.50
2023-04-18T13:31:21.637Z,10.30
2023-04-18T13:33:49.384Z,10.20
2023-04-18T13:36:17.985Z,11.30
2023-04-18T13:38:46.344Z,12.10
2023-04-18T13:41:14.161Z,11.30
2023-04-18T13:43:41.913Z,8.10
2023-04-18T13:46:09.860Z,10.80
2023-04-18T13:48:37.749Z,13.80
2023-04-18T13:51:06.929Z,8.90
2023-04-18T13:53:34.696Z,12.70
2023-04-18T13:56:02.548Z,9.50
2023-04-18T13:58:30.365Z,10.40
2023-04-18T14:00:58.338Z,9.80
2023-04-18T14:03:26.947Z,9.20
2023-04-18T14:05:54.952Z,9.80
2023-04-18T14:08:22.813Z,10.80
2023-04-18T14:10:50.704Z,13.80
2023-04-18T14:13:19.044Z,8.20
2023-04-18T14:15:47.080Z,9.30
2023-04-18T14:18:14.948Z,10.70
2023-04-18T14:20:43.496Z,8.90
2023-04-18T14:23:11.349Z,8.20
2023-04-18T14:25:39.107Z,7.20
2023-04-18T14:28:13.483Z,9.40
2023-04-18T14:30:41.285Z,9.50
2023-04-18T14:33:10.155Z,10.10
2023-04-18T14:35:38.567Z,9.70
2023-04-18T14:38:06.570Z,8.90
2023-04-18T14:40:34.437Z,8.80
2023-04-18T14:43:02.684Z,12.30
2023-04-18T14:45:34.684Z,7.10
2023-04-18T14:48:02.666Z,7.80
2023-04-18T14:50:31.449Z,8.70
2023-04-18T14:52:59.293Z,10.80
2023-04-18T14:55:27.140Z,8.90
2023-04-18T14:57:54.964Z,9.80
2023-04-18T15:00:22.878Z,8.40
2023-04-18T15:02:50.909Z,9.80
2023-04-18T15:05:23.629Z,7.60
2023-04-18T15:07:52.130Z,6.80
2023-04-18T15:10:22.366Z,10.40
2023-04-18T15:12:51.201Z,10.70
2023-04-18T15:15:19.756Z,8.00
2023-04-18T15:17:47.588Z,7.80
2023-04-18T15:20:15.367Z,10.30
2023-04-18T15:22:43.139Z,7.10
2023-04-18T15:25:12.438Z,8.60
2023-04-18T15:27:40.619Z,9.90
2023-04-18T15:30:13.476Z,10.20
2023-04-18T15:32:42.145Z,9.20
2023-04-18T15:35:11.713Z,10.30
2023-04-18T15:37:39.634Z,12.70
2023-04-18T15:40:09.597Z,10.00
2023-04-18T15:42:39.470Z,9.30
2023-04-18T15:45:08.103Z,9.50
2023-04-18T15:47:36.193Z,9.50
2023-04-18T15:50:05.062Z,10.50
2023-04-18T15:52:33.068Z,12.60
2023-04-18T15:55:01.054Z,9.50
2023-04-18T15:57:32.120Z,9.00
2023-04-18T16:00:00.159Z,9.90
2023-04-18T16:02:28.128Z,10.00
2023-04-18T16:04:55.998Z,10.80
2023-04-18T16:07:23.701Z,8.70
2023-04-18T16:09:51.457Z,8.90
2023-04-18T16:12:19.289Z,9.50
2023-04-18T16:14:47.046Z,8.20
2023-04-18T16:17:14.909Z,9.10
2023-04-18T16:19:42.912Z,12.40
2023-04-18T16:22:12.145Z,10.80
2023-04-18T16:24:41.945Z,9.00
2023-04-18T16:27:09.893Z,12.50
2023-04-18T16:29:37.815Z,11.10
2023-04-18T16:32:09.358Z,10.40
2023-04-18T16:34:37.204Z,11.90
2023-04-18T16:37:04.956Z,11.30
2023-04-18T16:39:32.827Z,9.80
2023-04-18T16:42:01.143Z,9.20
2023-04-18T16:44:29.107Z,11.70
2023-04-18T16:46:57.058Z,9.90
2023-04-18T16:49:25.310Z,14.00
2023-04-18T16:51:53.084Z,14.20
2023-04-18T16:54:20.953Z,12.40
2023-04-18T16:56:48.775Z,9.60
2023-04-18T16:59:16.643Z,11.60
2023-04-18T17:01:44.479Z,9.80
2023-04-18T17:04:12.545Z,11.90
2023-04-18T17:06:42.835Z,11.80
2023-04-18T17:09:13.573Z,14.80
2023-04-18T17:11:42.125Z,12.00
2023-04-18T17:14:10.106Z,10.70
2023-04-18T17:16:40.650Z,10.20
2023-04-18T17:19:09.868Z,9.50
2023-04-18T17:21:38.464Z,12.40
2023-04-18T17:24:07.369Z,11.30
2023-04-18T17:26:38.268Z,11.10
2023-04-18T17:29:06.300Z,12.50
2023-04-18T17:31:34.641Z,9.80
2023-04-18T17:34:03.782Z,10.70
2023-04-18T17:36:31.743Z,9.10
2023-04-18T17:39:11.634Z,12.30
2023-04-18T17:41:39.588Z,12.90
2023-04-18T17:44:08.581Z,10.10
2023-04-18T17:46:37.303Z,8.20
2023-04-18T17:49:05.535Z,8.10
2023-04-18T17:51:34.891Z,10.50
2023-04-18T17:54:02.983Z,10.00
2023-04-18T17:56:31.387Z,9.00
2023-04-18T17:58:59.387Z,10.40
2023-04-18T18:01:31.693Z,10.50
2023-04-18T18:04:02.802Z,11.20
2023-04-18T18:06:31.256Z,9.40
2023-04-18T18:08:59.255Z,9.70
2023-04-18T18:11:27.756Z,8.60
2023-04-18T18:13:57.429Z,12.20
2023-04-18T18:16:25.333Z,11.50
2023-04-18T18:18:53.250Z,13.40
2023-04-18T18:21:21.083Z,9.90
2023-04-18T18:23:48.879Z,8.90
2023-04-18T18:26:16.715Z,10.20
2023-04-18T18:28:44.474Z,12.10
2023-04-18T18:31:12.765Z,9.80
2023-04-18T18:33:41.847Z,10.70
2023-04-18T18:36:09.708Z,11.80
2023-04-18T18:38:37.653Z,11.80
2023-04-18T18:41:07.112Z,13.50
2023-04-18T18:43:35.017Z,9.60
2023-04-18T18:46:02.976Z,12.20
2023-04-18T18:48:33.389Z,9.90
2023-04-18T18:51:02.662Z,14.50
2023-04-18T18:53:31.715Z,11.10
2023-04-18T18:56:02.343Z,11.80
2023-04-18T18:58:31.421Z,11.70
2023-04-18T19:01:03.126Z,10.10
2023-04-18T19:03:33.474Z,11.60
2023-04-18T19:06:04.329Z,11.10
2023-04-18T19:08:35.817Z,11.50
2023-04-18T19:11:04.371Z,12.30
2023-04-18T19:13:32.328Z,10.50
2023-04-18T19:16:00.318Z,12.20
2023-04-18T19:18:28.525Z,12.40
2023-04-18T19:20:56.777Z,10.30
2023-04-18T19:23:25.341Z,11.80
2023-04-18T19:25:53.778Z,13.90
2023-04-18T19:28:23.510Z,11.30
2023-04-18T19:30:53.541Z,14.70
2023-04-18T19:33:24.306Z,13.10
2023-04-18T19:35:53.028Z,14.00
2023-04-18T19:38:21.368Z,13.60
2023-04-18T19:40:49.737Z,14.90
2023-04-18T19:43:18.553Z,13.50
2023-04-18T19:45:47.476Z,11.60
2023-04-18T19:48:16.498Z,13.00
2023-04-18T19:50:45.213Z,13.50
2023-04-18T19:53:16.031Z,13.80
2023-04-18T19:55:46.671Z,13.20
2023-04-18T19:58:36.150Z,16.60
2023-04-18T20:01:06.642Z,12.90
2023-04-18T20:03:36.001Z,14.90
2023-04-18T20:06:06.774Z,11.10
2023-04-18T20:08:38.989Z,11.80
2023-04-18T20:11:10.552Z,12.00
2023-04-18T20:13:40.007Z,11.90
2023-04-18T20:16:09.587Z,13.50
2023-04-18T20:18:41.290Z,10.70
2023-04-18T20:21:11.033Z,11.90
2023-04-18T20:23:42.015Z,13.40
2023-04-18T20:26:10.011Z,11.20
2023-04-18T20:28:37.996Z,13.50
2023-04-18T20:31:05.885Z,14.90
2023-04-18T20:33:34.314Z,16.60
2023-04-18T20:36:02.573Z,13.20
2023-04-18T20:38:30.429Z,16.30
2023-04-18T20:40:58.793Z,13.80
2023-04-18T20:43:27.801Z,14.70
2023-04-18T20:45:57.769Z,15.70
2023-04-18T20:48:26.291Z,13.90
2023-04-18T20:50:55.156Z,15.90
2023-04-18T20:53:27.258Z,14.90
2023-04-18T20:55:56.178Z,14.90
2023-04-18T20:58:25.239Z,15.40
2023-04-18T21:00:54.398Z,14.10
2023-04-18T21:03:25.150Z,15.10
2023-04-18T21:05:54.418Z,21.50
2023-04-18T21:08:22.861Z,15.60
2023-04-18T21:10:50.731Z,16.00
2023-04-18T21:13:18.501Z,16.50
2023-04-18T21:15:46.479Z,20.60
2023-04-18T21:18:14.368Z,18.40
2023-04-18T21:20:42.199Z,17.90
2023-04-18T21:23:10.063Z,18.20
2023-04-18T21:25:37.825Z,17.70
2023-04-18T21:28:06.060Z,16.90
2023-04-18T21:30:34.248Z,18.00
2023-04-18T21:33:02.633Z,18.70
2023-04-18T21:35:30.531Z,20.20
2023-04-18T21:37:58.589Z,22.80
2023-04-18T21:40:26.865Z,19.40
2023-04-18T21:42:54.612Z,21.60
2023-04-18T21:45:22.538Z,23.60
2023-04-18T21:47:50.617Z,21.90
2023-04-18T21:50:18.614Z,20.40
2023-04-18T21:52:46.420Z,26.90
2023-04-18T21:55:14.277Z,22.50
2023-04-18T21:57:42.113Z,24.60
2023-04-18T22:00:11.229Z,21.50
2023-04-18T22:02:40.889Z,25.00
2023-04-18T22:05:09.152Z,20.10
2023-04-18T22:07:50.110Z,24.00
2023-04-18T22:10:25.293Z,23.30
2023-04-18T22:12:56.274Z,23.30
2023-04-18T22:15:24.642Z,25.70
2023-04-18T22:17:54.292Z,19.10
2023-04-18T22:20:22.350Z,24.70
2023-04-18T22:22:50.083Z,19.60
2023-04-18T22:25:18.053Z,24.20
2023-04-18T22:27:46.470Z,23.30
2023-04-18T22:30:14.685Z,26.10
2023-04-18T22:32:42.575Z,27.80
2023-04-18T22:35:10.880Z,25.30
2023-04-18T22:37:38.967Z,23.60
2023-04-18T22:40:09.108Z,25.40
2023-04-18T22:42:38.619Z,22.80
2023-04-18T22:45:07.400Z,26.50
2023-04-18T22:47:36.022Z,19.90
2023-04-18T22:50:04.451Z,25.40
2023-04-18T22:52:32.456Z,23.80
2023-04-18T22:55:02.645Z,22.90
2023-04-18T22:57:30.745Z,22.90
2023-04-18T22:59:58.640Z,22.90
2023-04-18T23:02:26.674Z,27.30
2023-04-18T23:04:58.422Z,25.20
2023-04-18T23:07:26.406Z,22.70
2023-04-18T23:09:54.276Z,29.00
2023-04-18T23:12:22.439Z,29.70
2023-04-18T23:14:50.405Z,24.50
2023-04-18T23:17:18.489Z,22.50
2023-04-18T23:19:46.381Z,22.60
2023-04-18T23:22:14.316Z,26.90
2023-04-18T23:24:42.183Z,25.50
2023-04-18T23:27:09.961Z,25.10
2023-04-18T23:29:39.168Z,25.10
2023-04-18T23:32:07.014Z,22.60
2023-04-18T23:34:34.863Z,23.10
2023-04-18T23:37:02.638Z,27.70
2023-04-18T23:39:30.551Z,22.30
2023-04-18T23:41:58.431Z,20.90
2023-04-18T23:44:26.250Z,24.70
2023-04-18T23:46:54.112Z,22.50
2023-04-18T23:49:21.959Z,23.30
2023-04-18T23:51:49.770Z,25.00
2023-04-18T23:54:17.543Z,22.60
2023-04-18T23:56:45.409Z,23.50
2023-04-18T23:59:13.576Z,25.50
